Time;durP1;ratioP1;P1;durP2;ratioP2;P2;SDS_P1;SDS_P2;PMS_P1;PMS_P2;Temp;Humidity;BMP_temperature;BMP_pressure;BME280_temperature;BME280_humidity;BME280_pressure;Samples;Min_cycle;Max_cycle;Signal;HPM_P1;HPM_P2
2023/12/16 00:00:52;;;;;;;;;;;7.50;86.00;;;;;;5091295;23;19936;-86
2023/12/16 00:03:15;;;;;;;;;;;7.60;86.00;;;;;;5112466;23;20318;-85
2023/12/16 00:05:56;;;;;;;;;;;7.60;86.00;;;;;;5113538;23;19916;-85
2023/12/16 00:08:11;;;;;;;;;;;7.60;86.00;;;;;;5088458;23;19936;-84
2023/12/16 00:10:32;;;;;;;;;;;7.60;85.90;;;;;;5113850;23;19901;-85
2023/12/16 00:12:52;;;;;;;;;;;7.60;86.00;;;;;;5114644;23;19904;-85
2023/12/16 00:15:10;;;;;;;;;;;7.60;86.00;;;;;;5086675;23;20039;-85
2023/12/16 00:17:33;;;;;;;;;;;7.60;86.00;;;;;;5113601;23;19986;-84
2023/12/16 00:19:58;;;;;;;;;;;7.60;86.00;;;;;;5115828;23;19940;-85
2023/12/16 00:22:14;;;;;;;;;;;7.70;86.00;;;;;;5088243;23;19905;-85
2023/12/16 00:24:53;;;;;;;;;;;7.50;85.80;;;;;;5110969;23;19909;-85
2023/12/16 00:27:28;;;;;;;;;;;7.60;85.90;;;;;;5114489;23;19908;-85
2023/12/16 00:29:48;;;;;;;;;;;7.50;85.80;;;;;;5093278;23;20362;-84
2023/12/16 00:32:09;;;;;;;;;;;7.60;85.80;;;;;;5113373;23;19900;-84
2023/12/16 00:34:35;;;;;;;;;;;7.60;85.70;;;;;;5113268;23;20278;-84
2023/12/16 00:37:18;;;;;;;;;;;7.60;85.80;;;;;;5112222;23;19932;-83
2023/12/16 00:39:43;;;;;;;;;;;7.50;85.60;;;;;;5112726;23;20265;-85
2023/12/16 00:41:46;;;;;;;;;;;7.40;85.60;;;;;;5089100;23;19911;-85
2023/12/16 00:44:07;;;;;;;;;;;7.50;85.60;;;;;;5114454;23;19908;-83
2023/12/16 00:46:30;;;;;;;;;;;7.50;85.60;;;;;;5114823;23;19920;-86
2023/12/16 00:48:59;;;;;;;;;;;7.40;85.60;;;;;;5113994;23;19900;-86
2023/12/16 00:51:20;;;;;;;;;;;7.40;85.50;;;;;;5111081;23;19904;-85
2023/12/16 00:53:47;;;;;;;;;;;7.40;85.50;;;;;;5113048;23;19947;-85
2023/12/16 00:56:09;;;;;;;;;;;7.50;85.50;;;;;;5092585;23;19905;-84
2023/12/16 00:58:38;;;;;;;;;;;7.40;85.50;;;;;;5092180;23;19955;-84
2023/12/16 01:01:02;;;;;;;;;;;7.40;85.40;;;;;;5109623;23;19907;-85
2023/12/16 01:03:45;;;;;;;;;;;;;;;;;;;;;
2023/12/16 01:06:13;;;;;;;;;;;7.30;85.30;;;;;;5114113;23;19904;-82
2023/12/16 01:08:37;;;;;;;;;;;7.30;85.20;;;;;;5112783;23;19975;-83
2023/12/16 01:11:19;;;;;;;;;;;7.30;85.30;;;;;;5112960;23;20246;-84
2023/12/16 01:13:44;;;;;;;;;;;7.30;85.30;;;;;;5112722;23;19900;-84
2023/12/16 01:16:19;;;;;;;;;;;7.20;85.10;;;;;;5112224;23;19908;-85
2023/12/16 01:18:41;;;;;;;;;;;7.20;85.10;;;;;;5109522;23;19915;-84
2023/12/16 01:21:05;;;;;;;;;;;7.20;85.20;;;;;;5114585;23;19904;-84
2023/12/16 01:23:37;;;;;;;;;;;7.20;85.20;;;;;;5111407;23;19900;-86
2023/12/16 01:26:20;;;;;;;;;;;7.20;85.20;;;;;;5113682;23;19912;-85
2023/12/16 01:28:28;;;;;;;;;;;7.20;85.20;;;;;;5089801;23;19921;-84
2023/12/16 01:30:35;;;;;;;;;;;7.20;85.20;;;;;;5089805;23;19943;-86
2023/12/16 01:32:42;;;;;;;;;;;7.10;85.30;;;;;;5065448;23;19912;-84
2023/12/16 01:35:04;;;;;;;;;;;7.20;85.30;;;;;;5090514;23;19911;-85
2023/12/16 01:37:04;;;;;;;;;;;7.10;85.30;;;;;;5112831;23;20339;-84
2023/12/16 01:39:09;;;;;;;;;;;7.10;85.30;;;;;;5114983;23;19912;-84
2023/12/16 01:41:15;;;;;;;;;;;7.00;85.30;;;;;;5115575;23;19910;-83
2023/12/16 01:43:37;;;;;;;;;;;7.10;85.40;;;;;;5114830;23;19911;-84
2023/12/16 01:46:20;;;;;;;;;;;7.10;85.30;;;;;;5114625;23;19908;-86
2023/12/16 01:48:24;;;;;;;;;;;7.00;85.30;;;;;;5115534;23;20399;-84
2023/12/16 01:50:27;;;;;;;;;;;7.10;85.40;;;;;;5090287;23;19904;-85
2023/12/16 01:52:34;;;;;;;;;;;7.10;85.40;;;;;;5106767;23;19912;-84
2023/12/16 01:54:42;;;;;;;;;;;7.00;85.50;;;;;;5115944;23;19911;-84
2023/12/16 01:57:11;;;;;;;;;;;7.00;85.50;;;;;;5110094;23;19955;-82
2023/12/16 01:59:28;;;;;;;;;;;7.10;85.70;;;;;;5111141;23;19923;-84
2023/12/16 02:02:00;;;;;;;;;;;7.00;85.60;;;;;;5112655;23;19920;-83
2023/12/16 02:04:31;;;;;;;;;;;7.10;85.70;;;;;;5114915;23;19913;-84
2023/12/16 02:06:57;;;;;;;;;;;7.00;85.70;;;;;;5112574;23;19915;-83
2023/12/16 02:09:39;;;;;;;;;;;7.00;85.80;;;;;;5117187;23;19979;-85
2023/12/16 02:12:05;;;;;;;;;;;7.00;85.80;;;;;;5117319;23;19916;-86
2023/12/16 02:14:31;;;;;;;;;;;7.10;86.00;;;;;;5114693;23;19919;-85
2023/12/16 02:17:07;;;;;;;;;;;;;;;;;;;;;
2023/12/16 02:19:46;;;;;;;;;;;;;;;;;;;;;
2023/12/16 02:22:10;;;;;;;;;;;7.20;86.30;;;;;;5111910;23;19975;-82
2023/12/16 02:24:36;;;;;;;;;;;7.10;86.10;;;;;;5116821;23;20117;-84
2023/12/16 02:26:59;;;;;;;;;;;7.10;86.20;;;;;;5116011;23;19908;-83
2023/12/16 02:29:20;;;;;;;;;;;7.10;86.20;;;;;;5116531;23;19994;-85
2023/12/16 02:32:01;;;;;;;;;;;7.20;86.30;;;;;;5116720;23;19935;-85
2023/12/16 02:34:23;;;;;;;;;;;7.20;86.30;;;;;;5112580;23;20309;-83
2023/12/16 02:36:29;;;;;;;;;;;7.20;86.30;;;;;;5114964;23;19904;-84
2023/12/16 02:38:55;;;;;;;;;;;7.30;86.40;;;;;;5117249;23;20266;-85
2023/12/16 02:40:56;;;;;;;;;;;7.30;86.40;;;;;;5092279;23;19956;-85
2023/12/16 02:43:03;;;;;;;;;;;7.30;86.40;;;;;;5114873;23;19904;-85
2023/12/16 02:45:33;;;;;;;;;;;7.30;86.40;;;;;;5111861;23;20385;-83
2023/12/16 02:48:00;;;;;;;;;;;7.30;86.40;;;;;;5094623;23;19909;-83
2023/12/16 02:50:26;;;;;;;;;;;7.30;86.40;;;;;;5118175;23;19911;-84
2023/12/16 02:52:47;;;;;;;;;;;7.30;86.30;;;;;;5116479;23;19983;-84
2023/12/16 02:55:10;;;;;;;;;;;7.30;86.30;;;;;;5114242;23;19953;-84
2023/12/16 02:57:31;;;;;;;;;;;7.30;86.30;;;;;;5094611;23;19901;-83
2023/12/16 02:59:54;;;;;;;;;;;7.30;86.20;;;;;;5114631;23;19908;-84
2023/12/16 03:02:21;;;;;;;;;;;7.40;86.20;;;;;;5113686;23;19908;-84
2023/12/16 03:04:52;;;;;;;;;;;7.30;86.10;;;;;;5112980;23;19908;-83
2023/12/16 03:07:22;;;;;;;;;;;7.40;86.20;;;;;;5115388;23;19904;-84
2023/12/16 03:09:43;;;;;;;;;;;7.30;86.10;;;;;;5129450;23;19951;-84
2023/12/16 03:12:04;;;;;;;;;;;7.30;86.10;;;;;;5138435;23;19927;-88
2023/12/16 03:14:27;;;;;;;;;;;7.40;86.20;;;;;;5120379;23;19904;-86
2023/12/16 03:16:59;;;;;;;;;;;;;;;;;;;;;
2023/12/16 03:19:23;;;;;;;;;;;7.40;86.20;;;;;;5139908;23;19920;-85
2023/12/16 03:21:43;;;;;;;;;;;7.40;86.10;;;;;;5138998;23;19920;-88
2023/12/16 03:24:05;;;;;;;;;;;7.50;86.30;;;;;;5140048;23;19923;-88
2023/12/16 03:26:31;;;;;;;;;;;7.40;86.20;;;;;;5119082;23;19897;-88
2023/12/16 03:28:54;;;;;;;;;;;7.30;86.10;;;;;;5140393;23;19923;-87
2023/12/16 03:31:14;;;;;;;;;;;7.50;86.20;;;;;;5138991;23;19896;-87
2023/12/16 03:33:21;;;;;;;;;;;7.40;86.10;;;;;;5112105;23;19908;-86
2023/12/16 03:35:24;;;;;;;;;;;7.40;86.20;;;;;;5137739;23;19907;-86
2023/12/16 03:37:30;;;;;;;;;;;7.50;86.20;;;;;;5125946;23;19943;-84
2023/12/16 03:39:32;;;;;;;;;;;7.50;86.20;;;;;;5118412;23;20176;-83
2023/12/16 03:41:38;;;;;;;;;;;7.50;86.30;;;;;;5093996;23;19904;-84
2023/12/16 03:43:50;;;;;;;;;;;7.50;86.20;;;;;;5118431;23;20320;-85
2023/12/16 03:45:59;;;;;;;;;;;7.40;86.20;;;;;;5115905;23;19916;-85
2023/12/16 03:48:00;;;;;;;;;;;7.40;86.20;;;;;;5090073;23;19904;-85
2023/12/16 03:50:27;;;;;;;;;;;7.50;86.20;;;;;;5117734;23;20358;-85
2023/12/16 03:52:28;;;;;;;;;;;7.50;86.30;;;;;;5115253;23;19966;-84
2023/12/16 03:54:58;;;;;;;;;;;7.50;86.30;;;;;;5114926;23;19911;-83
2023/12/16 03:57:21;;;;;;;;;;;7.40;86.20;;;;;;5092398;23;19916;-84
2023/12/16 03:59:44;;;;;;;;;;;7.50;86.30;;;;;;5111577;23;19916;-86
2023/12/16 04:02:05;;;;;;;;;;;7.40;86.20;;;;;;5112593;23;19908;-85
2023/12/16 04:04:29;;;;;;;;;;;7.50;86.30;;;;;;5093338;23;19908;-83
2023/12/16 04:06:59;;;;;;;;;;;7.50;86.40;;;;;;5113550;23;19912;-85
2023/12/16 04:09:30;;;;;;;;;;;7.50;86.30;;;;;;5112261;23;19908;-85
2023/12/16 04:11:50;;;;;;;;;;;7.50;86.30;;;;;;5091978;23;20323;-84
2023/12/16 04:14:22;;;;;;;;;;;7.60;86.40;;;;;;5114654;23;19987;-85
2023/12/16 04:16:45;;;;;;;;;;;7.60;86.40;;;;;;5112828;23;19919;-83
2023/12/16 04:19:09;;;;;;;;;;;7.60;86.30;;;;;;5115260;23;20011;-84
2023/12/16 04:21:32;;;;;;;;;;;7.60;86.40;;;;;;5115562;23;19904;-84
2023/12/16 04:24:03;;;;;;;;;;;7.60;86.40;;;;;;5111205;23;19958;-83
2023/12/16 04:26:24;;;;;;;;;;;7.60;86.40;;;;;;5114095;23;19908;-85
2023/12/16 04:28:56;;;;;;;;;;;7.70;86.50;;;;;;5114277;23;19923;-86
2023/12/16 04:31:26;;;;;;;;;;;7.60;86.40;;;;;;5115433;23;19915;-84
2023/12/16 04:33:53;;;;;;;;;;;7.60;86.40;;;;;;5111208;23;19935;-83
2023/12/16 04:36:23;;;;;;;;;;;7.70;86.30;;;;;;5115093;23;19908;-83
2023/12/16 04:38:43;;;;;;;;;;;7.60;86.30;;;;;;5087578;23;19909;-84
2023/12/16 04:44:00;;;;;;;;;;;7.50;86.20;;;;;;5114938;23;19900;-83
2023/12/16 04:46:31;;;;;;;;;;;7.60;86.30;;;;;;5111279;23;19904;-84
2023/12/16 04:48:54;;;;;;;;;;;7.70;86.40;;;;;;5114601;23;19912;-83
2023/12/16 04:51:22;;;;;;;;;;;7.70;86.30;;;;;;5113509;23;19935;-84
2023/12/16 04:53:52;;;;;;;;;;;7.60;86.30;;;;;;5092859;23;20024;-84
2023/12/16 04:56:24;;;;;;;;;;;7.60;86.10;;;;;;5114132;23;19914;-83
2023/12/16 04:58:39;;;;;;;;;;;7.60;86.20;;;;;;5114842;23;19915;-82
2023/12/16 05:00:50;;;;;;;;;;;7.60;86.10;;;;;;5059749;23;19905;-83
2023/12/16 05:02:54;;;;;;;;;;;7.70;86.20;;;;;;5084144;23;19916;-82
2023/12/16 05:05:15;;;;;;;;;;;7.60;86.00;;;;;;5114792;23;19904;-84
2023/12/16 05:07:30;;;;;;;;;;;7.60;86.10;;;;;;5114283;23;19908;-83
2023/12/16 05:09:55;;;;;;;;;;;7.60;86.00;;;;;;5114144;23;19987;-82
2023/12/16 05:12:18;;;;;;;;;;;7.60;86.00;;;;;;5092476;23;19927;-84
2023/12/16 05:14:41;;;;;;;;;;;7.60;85.90;;;;;;5115331;23;19912;-83
2023/12/16 05:17:05;;;;;;;;;;;7.60;86.00;;;;;;5114066;23;19912;-82
2023/12/16 05:19:49;;;;;;;;;;;7.60;86.00;;;;;;5113295;23;20023;-84
2023/12/16 05:22:12;;;;;;;;;;;7.60;86.00;;;;;;5110742;23;19912;-83
2023/12/16 05:24:30;;;;;;;;;;;7.60;86.00;;;;;;5113779;23;19905;-84
2023/12/16 05:26:54;;;;;;;;;;;7.60;86.10;;;;;;5113060;23;19931;-84
2023/12/16 05:29:17;;;;;;;;;;;7.60;86.00;;;;;;5092042;23;19923;-84
2023/12/16 05:31:44;;;;;;;;;;;7.50;85.90;;;;;;5111030;23;19904;-84
2023/12/16 05:33:56;;;;;;;;;;;7.50;86.00;;;;;;5114426;23;19931;-82
2023/12/16 05:36:29;;;;;;;;;;;7.50;85.90;;;;;;5113210;23;19909;-83
2023/12/16 05:39:09;;;;;;;;;;;7.50;85.80;;;;;;5106942;23;19959;-83
2023/12/16 05:41:39;;;;;;;;;;;7.60;86.60;;;;;;5115890;23;19904;-83
2023/12/16 05:44:03;;;;;;;;;;;7.50;85.90;;;;;;5115798;23;19935;-84
2023/12/16 05:46:29;;;;;;;;;;;7.50;85.90;;;;;;5115565;23;19912;-85
2023/12/16 05:48:37;;;;;;;;;;;7.50;85.90;;;;;;5114532;23;20416;-84
2023/12/16 05:51:00;;;;;;;;;;;7.50;85.80;;;;;;5115933;23;19919;-86
2023/12/16 05:53:26;;;;;;;;;;;7.60;85.90;;;;;;5114693;23;20282;-84
2023/12/16 05:55:29;;;;;;;;;;;7.50;86.00;;;;;;5063870;23;19961;-82
2023/12/16 05:57:38;;;;;;;;;;;7.60;86.10;;;;;;5089820;23;19907;-84
2023/12/16 05:59:42;;;;;;;;;;;7.60;86.10;;;;;;5115039;23;19991;-84
2023/12/16 06:01:48;;;;;;;;;;;7.50;86.10;;;;;;5090593;23;19905;-84
2023/12/16 06:04:13;;;;;;;;;;;7.60;86.20;;;;;;5092620;23;19976;-84
2023/12/16 06:06:40;;;;;;;;;;;7.40;86.00;;;;;;5093628;23;19905;-84
2023/12/16 06:09:03;;;;;;;;;;;7.50;86.20;;;;;;5092583;23;19901;-85
2023/12/16 06:11:32;;;;;;;;;;;7.60;86.30;;;;;;5094303;23;19900;-84
2023/12/16 06:13:53;;;;;;;;;;;7.50;86.30;;;;;;5093667;23;19905;-83
2023/12/16 06:16:15;;;;;;;;;;;7.50;86.30;;;;;;5092580;23;19960;-83
2023/12/16 06:18:54;;;;;;;;;;;7.50;86.30;;;;;;5115469;23;19912;-84
2023/12/16 06:21:18;;;;;;;;;;;7.50;86.40;;;;;;5116324;23;19904;-84
2023/12/16 06:23:43;;;;;;;;;;;7.50;86.50;;;;;;5116483;23;19904;-83
2023/12/16 06:26:07;;;;;;;;;;;7.50;86.50;;;;;;5110039;23;19926;-82
2023/12/16 06:28:14;;;;;;;;;;;7.60;86.40;;;;;;5089219;23;19936;-83
2023/12/16 06:30:26;;;;;;;;;;;7.50;86.40;;;;;;5115201;23;19908;-84
2023/12/16 06:32:40;;;;;;;;;;;7.50;86.40;;;;;;5115968;23;19975;-84
2023/12/16 06:34:46;;;;;;;;;;;7.50;86.50;;;;;;5115752;23;20238;-83
2023/12/16 06:36:50;;;;;;;;;;;7.50;86.50;;;;;;5111630;23;19905;-86
2023/12/16 06:38:53;;;;;;;;;;;7.60;86.60;;;;;;5115008;23;19912;-83
2023/12/16 06:40:56;;;;;;;;;;;7.50;86.60;;;;;;5115624;23;19908;-83
2023/12/16 06:43:10;;;;;;;;;;;7.50;86.60;;;;;;5116533;23;19904;-82
2023/12/16 06:45:19;;;;;;;;;;;7.60;86.70;;;;;;5115465;23;20232;-84
2023/12/16 06:47:29;;;;;;;;;;;7.70;86.80;;;;;;5114024;23;19979;-83
2023/12/16 06:49:56;;;;;;;;;;;7.60;86.60;;;;;;5087959;23;19996;-84
2023/12/16 06:52:15;;;;;;;;;;;7.50;86.60;;;;;;5090776;23;19905;-85
2023/12/16 06:54:21;;;;;;;;;;;7.70;86.80;;;;;;5091948;23;19913;-83
2023/12/16 06:56:24;;;;;;;;;;;7.50;86.60;;;;;;5115378;23;19931;-84
2023/12/16 06:58:32;;;;;;;;;;;7.60;86.70;;;;;;5115582;23;19908;-83
2023/12/16 07:00:38;;;;;;;;;;;7.70;86.80;;;;;;5115268;23;19908;-83
2023/12/16 07:02:44;;;;;;;;;;;7.60;86.80;;;;;;5116136;23;19915;-82
2023/12/16 07:04:56;;;;;;;;;;;7.60;86.80;;;;;;5091870;23;19923;-83
2023/12/16 07:06:56;;;;;;;;;;;7.60;86.80;;;;;;5113244;23;19908;-84
2023/12/16 07:08:57;;;;;;;;;;;7.60;86.70;;;;;;5090007;23;19913;-83
2023/12/16 07:10:58;;;;;;;;;;;7.60;86.70;;;;;;5116213;23;19967;-84
2023/12/16 07:12:59;;;;;;;;;;;7.60;86.80;;;;;;5094981;23;19904;-84
2023/12/16 07:15:00;;;;;;;;;;;7.60;86.80;;;;;;5116213;23;19912;-84
2023/12/16 07:17:03;;;;;;;;;;;7.60;86.80;;;;;;5092086;23;19912;-85
2023/12/16 07:19:05;;;;;;;;;;;7.60;86.80;;;;;;5091699;23;19912;-84
2023/12/16 07:21:15;;;;;;;;;;;7.70;86.80;;;;;;5116181;23;19936;-84
2023/12/16 07:23:17;;;;;;;;;;;7.50;86.80;;;;;;5116094;23;19912;-85
2023/12/16 07:25:18;;;;;;;;;;;7.70;86.90;;;;;;5118299;23;20004;-85
2023/12/16 07:27:19;;;;;;;;;;;7.60;86.80;;;;;;5118070;23;19904;-83
2023/12/16 07:29:20;;;;;;;;;;;7.70;86.90;;;;;;5066438;23;19912;-84
2023/12/16 07:31:21;;;;;;;;;;;7.70;86.90;;;;;;5092294;23;19943;-85
2023/12/16 07:33:22;;;;;;;;;;;7.60;86.80;;;;;;5118091;23;19912;-85
2023/12/16 07:35:27;;;;;;;;;;;7.70;86.80;;;;;;5116797;23;19908;-84
2023/12/16 07:37:37;;;;;;;;;;;7.50;86.90;;;;;;5091310;23;20343;-83
2023/12/16 07:39:44;;;;;;;;;;;7.60;86.90;;;;;;5089970;23;19917;-82
2023/12/16 07:41:50;;;;;;;;;;;7.60;86.90;;;;;;5091245;23;19908;-81
2023/12/16 07:43:57;;;;;;;;;;;7.60;86.90;;;;;;5091575;23;19909;-84
2023/12/16 07:46:15;;;;;;;;;;;7.60;86.90;;;;;;5069930;23;19909;-82
2023/12/16 07:48:25;;;;;;;;;;;7.60;87.00;;;;;;5092621;23;19921;-85
2023/12/16 07:50:45;;;;;;;;;;;7.60;87.00;;;;;;5096298;23;19913;-84
2023/12/16 07:53:07;;;;;;;;;;;7.60;87.10;;;;;;5117622;23;19952;-84
2023/12/16 07:55:28;;;;;;;;;;;7.70;87.00;;;;;;5117327;23;19908;-84
2023/12/16 07:57:38;;;;;;;;;;;7.60;87.10;;;;;;5092960;23;20336;-84
2023/12/16 08:00:17;;;;;;;;;;;7.60;87.10;;;;;;5116309;23;19912;-84
2023/12/16 08:02:37;;;;;;;;;;;7.60;87.10;;;;;;5097178;23;19984;-84
2023/12/16 08:04:58;;;;;;;;;;;7.60;87.00;;;;;;5116347;23;19912;-84
2023/12/16 08:07:19;;;;;;;;;;;7.70;87.10;;;;;;5092011;23;19960;-86
2023/12/16 08:09:40;;;;;;;;;;;7.60;87.10;;;;;;5115369;23;20136;-84
2023/12/16 08:12:00;;;;;;;;;;;7.70;87.10;;;;;;5115169;23;19928;-85
2023/12/16 08:14:01;;;;;;;;;;;7.70;87.10;;;;;;5117371;23;19912;-84
2023/12/16 08:16:22;;;;;;;;;;;7.60;87.20;;;;;;5118309;23;19911;-85
2023/12/16 08:18:42;;;;;;;;;;;7.70;87.30;;;;;;5118784;23;19916;-82
2023/12/16 08:21:03;;;;;;;;;;;7.70;87.20;;;;;;5095967;23;19904;-85
2023/12/16 08:23:24;;;;;;;;;;;7.70;87.30;;;;;;5096063;23;19915;-84
2023/12/16 08:25:50;;;;;;;;;;;7.70;87.40;;;;;;5119919;23;19984;-84
2023/12/16 08:28:23;;;;;;;;;;;7.70;87.40;;;;;;5117895;23;19909;-85
2023/12/16 08:30:44;;;;;;;;;;;7.80;87.50;;;;;;5117868;23;19904;-84
2023/12/16 08:33:14;;;;;;;;;;;7.70;87.50;;;;;;5097728;23;19915;-83
2023/12/16 08:35:50;;;;;;;;;;;7.70;87.60;;;;;;5094764;23;19961;-84
2023/12/16 08:38:14;;;;;;;;;;;7.70;87.50;;;;;;5115807;23;19980;-84
2023/12/16 08:40:37;;;;;;;;;;;7.70;87.70;;;;;;5093087;23;19987;-85
2023/12/16 08:42:41;;;;;;;;;;;7.80;87.90;;;;;;5115864;23;19908;-85
2023/12/16 08:44:42;;;;;;;;;;;7.80;87.90;;;;;;5088744;23;19909;-82
2023/12/16 08:46:47;;;;;;;;;;;7.80;88.00;;;;;;5086805;23;19954;-84
2023/12/16 08:48:48;;;;;;;;;;;7.80;87.90;;;;;;5090404;23;20319;-84
2023/12/16 08:50:49;;;;;;;;;;;7.90;88.00;;;;;;5064997;23;19968;-85
2023/12/16 08:52:53;;;;;;;;;;;7.80;88.00;;;;;;5115335;23;19912;-86
2023/12/16 08:55:14;;;;;;;;;;;7.80;88.00;;;;;;5116299;23;19915;-83
2023/12/16 08:57:17;;;;;;;;;;;7.80;88.00;;;;;;5115138;23;19908;-84
2023/12/16 08:59:17;;;;;;;;;;;7.90;88.20;;;;;;5091790;23;20234;-84
2023/12/16 09:01:21;;;;;;;;;;;8.00;88.20;;;;;;5117213;23;19912;-84
2023/12/16 09:03:21;;;;;;;;;;;7.80;88.20;;;;;;5090568;23;19905;-84
2023/12/16 09:05:27;;;;;;;;;;;8.00;88.20;;;;;;5088469;23;19913;-83
2023/12/16 09:07:28;;;;;;;;;;;7.90;88.20;;;;;;5090542;23;19961;-83
2023/12/16 09:09:39;;;;;;;;;;;7.90;88.30;;;;;;5116217;23;19905;-85
2023/12/16 09:11:47;;;;;;;;;;;8.00;88.10;;;;;;5116867;23;19908;-85
2023/12/16 09:13:48;;;;;;;;;;;8.10;88.20;;;;;;5092171;23;20540;-84
2023/12/16 09:15:51;;;;;;;;;;;8.00;88.10;;;;;;5092210;23;19936;-83
2023/12/16 09:18:00;;;;;;;;;;;8.00;88.00;;;;;;5119042;23;20337;-84
2023/12/16 09:20:00;;;;;;;;;;;8.00;88.10;;;;;;5118151;23;19915;-84
2023/12/16 09:22:11;;;;;;;;;;;8.00;88.00;;;;;;5118234;23;19931;-83
2023/12/16 09:24:12;;;;;;;;;;;8.00;88.00;;;;;;5118091;23;19908;-86
2023/12/16 09:26:18;;;;;;;;;;;8.10;88.10;;;;;;5115956;23;19911;-85
2023/12/16 09:28:19;;;;;;;;;;;8.10;88.00;;;;;;5115493;23;20091;-84
2023/12/16 09:30:19;;;;;;;;;;;8.20;88.20;;;;;;5090510;23;19916;-83
2023/12/16 09:32:20;;;;;;;;;;;8.10;88.10;;;;;;5116878;23;19904;-83
2023/12/16 09:34:21;;;;;;;;;;;8.10;88.10;;;;;;5117314;23;19908;-82
2023/12/16 09:36:29;;;;;;;;;;;8.20;88.20;;;;;;5117211;23;19932;-83
2023/12/16 09:38:49;;;;;;;;;;;8.00;88.00;;;;;;5094591;23;19913;-83
2023/12/16 09:40:51;;;;;;;;;;;8.10;88.20;;;;;;5118104;23;19964;-83
2023/12/16 09:43:18;;;;;;;;;;;8.20;88.30;;;;;;5118700;23;20270;-84
2023/12/16 09:45:40;;;;;;;;;;;8.10;88.10;;;;;;5097905;23;19913;-84
2023/12/16 09:48:04;;;;;;;;;;;8.20;88.30;;;;;;5115380;23;19920;-84
2023/12/16 09:50:30;;;;;;;;;;;8.20;88.30;;;;;;5119100;23;19908;-84
2023/12/16 09:52:51;;;;;;;;;;;8.20;88.30;;;;;;5095940;23;20438;-83
2023/12/16 09:55:14;;;;;;;;;;;8.20;88.40;;;;;;5095005;23;19908;-84
2023/12/16 09:57:38;;;;;;;;;;;8.20;88.40;;;;;;5095705;23;19931;-84
2023/12/16 09:59:52;;;;;;;;;;;8.30;88.50;;;;;;5117093;23;19912;-82
2023/12/16 10:01:53;;;;;;;;;;;8.30;88.50;;;;;;5091302;23;19908;-83
2023/12/16 10:03:54;;;;;;;;;;;8.30;88.40;;;;;;5118091;23;19904;-84
2023/12/16 10:05:58;;;;;;;;;;;8.30;88.60;;;;;;5091376;23;19916;-84
2023/12/16 10:08:00;;;;;;;;;;;8.30;88.50;;;;;;5119077;23;19982;-82
2023/12/16 10:10:00;;;;;;;;;;;8.40;88.50;;;;;;5117323;23;20457;-85
2023/12/16 10:12:02;;;;;;;;;;;8.40;88.50;;;;;;5091620;23;19909;-84
2023/12/16 10:14:03;;;;;;;;;;;8.40;88.50;;;;;;5120204;23;19909;-83
2023/12/16 10:16:15;;;;;;;;;;;8.30;88.40;;;;;;5093056;23;19908;-84
2023/12/16 10:18:18;;;;;;;;;;;8.30;88.40;;;;;;5119637;23;19928;-84
2023/12/16 10:20:19;;;;;;;;;;;8.40;88.30;;;;;;5118872;23;20266;-84
2023/12/16 10:22:20;;;;;;;;;;;8.40;88.50;;;;;;5116854;23;19908;-83
2023/12/16 10:24:20;;;;;;;;;;;8.30;88.50;;;;;;5117412;23;19915;-81
2023/12/16 10:26:21;;;;;;;;;;;8.40;88.40;;;;;;5118977;23;19908;-84
2023/12/16 10:28:26;;;;;;;;;;;8.40;88.30;;;;;;5092084;23;19924;-83
2023/12/16 10:30:26;;;;;;;;;;;8.40;88.40;;;;;;5095577;23;19921;-83
2023/12/16 10:32:28;;;;;;;;;;;8.40;88.30;;;;;;5069848;23;19921;-84
2023/12/16 10:34:31;;;;;;;;;;;8.40;88.20;;;;;;5093317;23;19913;-81
2023/12/16 10:36:32;;;;;;;;;;;8.50;88.20;;;;;;5069853;23;19905;-84
2023/12/16 10:38:33;;;;;;;;;;;8.40;88.30;;;;;;5119784;23;19982;-85
2023/12/16 10:40:37;;;;;;;;;;;8.40;88.20;;;;;;5117038;23;19909;-82
2023/12/16 10:42:39;;;;;;;;;;;8.40;88.30;;;;;;5070463;23;19909;-83
2023/12/16 10:44:40;;;;;;;;;;;8.40;88.30;;;;;;5122917;23;19912;-84
2023/12/16 10:46:41;;;;;;;;;;;8.50;88.40;;;;;;5121163;23;19908;-83
2023/12/16 10:48:45;;;;;;;;;;;8.40;88.20;;;;;;5094058;23;19939;-82
2023/12/16 10:50:49;;;;;;;;;;;8.50;88.20;;;;;;5116316;23;19924;-82
2023/12/16 10:52:55;;;;;;;;;;;8.50;88.30;;;;;;5068220;23;19905;-83
2023/12/16 10:55:22;;;;;;;;;;;8.40;88.20;;;;;;5115100;23;19911;-82
2023/12/16 10:57:29;;;;;;;;;;;8.40;88.20;;;;;;5092792;23;20019;-82
2023/12/16 11:00:11;;;;;;;;;;;8.50;88.30;;;;;;5119134;23;19912;-82
2023/12/16 11:02:25;;;;;;;;;;;8.60;88.30;;;;;;5117801;23;19911;-83
2023/12/16 11:04:54;;;;;;;;;;;8.50;88.30;;;;;;5097801;23;19908;-81
2023/12/16 11:07:21;;;;;;;;;;;8.50;88.10;;;;;;5082807;23;20363;-83
2023/12/16 11:09:44;;;;;;;;;;;8.50;88.30;;;;;;5070025;23;19913;-81
2023/12/16 11:11:51;;;;;;;;;;;8.40;88.10;;;;;;5068759;23;20351;-82
2023/12/16 11:14:12;;;;;;;;;;;8.60;88.20;;;;;;5047154;23;19905;-83
2023/12/16 11:16:58;;;;;;;;;;;8.50;88.20;;;;;;5069553;23;19908;-83
2023/12/16 11:19:42;;;;;;;;;;;8.50;88.10;;;;;;5064666;23;19924;-83
2023/12/16 11:22:16;;;;;;;;;;;8.50;88.20;;;;;;5018889;23;19905;-83
2023/12/16 11:24:43;;;;;;;;;;;8.50;88.10;;;;;;5034098;23;19913;-84
2023/12/16 11:27:03;;;;;;;;;;;8.50;88.10;;;;;;5069291;23;19908;-84
2023/12/16 11:29:24;;;;;;;;;;;8.50;88.10;;;;;;5071518;23;19909;-84
2023/12/16 11:31:50;;;;;;;;;;;8.50;88.10;;;;;;5072709;23;19905;-84
2023/12/16 11:34:30;;;;;;;;;;;8.60;88.10;;;;;;5049380;23;19953;-83
2023/12/16 11:43:54;;;;;;;;;;;8.60;88.10;;;;;;5117232;23;19920;-84
2023/12/16 11:45:55;;;;;;;;;;;8.60;88.10;;;;;;5119053;23;19908;-84
2023/12/16 11:47:56;;;;;;;;;;;8.60;88.00;;;;;;5103733;23;19932;-82
2023/12/16 11:50:15;;;;;;;;;;;8.60;88.00;;;;;;5092232;23;19983;-83
2023/12/16 11:55:16;;;;;;;;;;;8.60;88.10;;;;;;5105517;23;19904;-83
2023/12/16 11:57:21;;;;;;;;;;;8.60;88.00;;;;;;5117698;23;20294;-81
2023/12/16 11:59:21;;;;;;;;;;;8.50;87.90;;;;;;5119455;23;19916;-83
2023/12/16 12:01:22;;;;;;;;;;;8.50;87.90;;;;;;5117779;23;19951;-84
2023/12/16 12:03:23;;;;;;;;;;;8.60;88.70;;;;;;5118296;23;19908;-83
2023/12/16 12:05:23;;;;;;;;;;;8.50;87.90;;;;;;5118363;23;19904;-85
2023/12/16 12:07:24;;;;;;;;;;;8.60;88.00;;;;;;5090279;23;19995;-85
2023/12/16 12:09:24;;;;;;;;;;;8.50;87.90;;;;;;5093963;23;19936;-83
2023/12/16 12:11:25;;;;;;;;;;;8.60;88.00;;;;;;5092014;23;19916;-83
2023/12/16 12:13:51;;;;;;;;;;;8.50;87.90;;;;;;5118861;23;19908;-83
2023/12/16 12:16:12;;;;;;;;;;;8.60;88.00;;;;;;5095675;23;19909;-82
2023/12/16 12:18:33;;;;;;;;;;;8.60;88.00;;;;;;5118122;23;19908;-83
2023/12/16 12:20:54;;;;;;;;;;;8.60;87.90;;;;;;5096971;23;19909;-86
2023/12/16 12:23:14;;;;;;;;;;;8.50;87.80;;;;;;5098029;23;19953;-86
2023/12/16 12:25:35;;;;;;;;;;;8.50;87.80;;;;;;5117273;23;19904;-87
2023/12/16 12:27:55;;;;;;;;;;;8.60;87.90;;;;;;5118063;23;19924;-86
2023/12/16 12:30:19;;;;;;;;;;;8.50;87.80;;;;;;5119801;23;19920;-84
2023/12/16 12:32:39;;;;;;;;;;;8.50;87.80;;;;;;5096904;23;20289;-84
2023/12/16 12:35:04;;;;;;;;;;;8.50;87.80;;;;;;5096200;23;19913;-84
2023/12/16 12:37:26;;;;;;;;;;;8.50;87.80;;;;;;5117202;23;19959;-85
2023/12/16 12:39:26;;;;;;;;;;;8.50;87.80;;;;;;5091349;23;19916;-84
2023/12/16 12:41:27;;;;;;;;;;;8.50;87.80;;;;;;5118292;23;19943;-84
2023/12/16 12:43:28;;;;;;;;;;;8.50;87.90;;;;;;5091149;23;19916;-86
2023/12/16 12:45:32;;;;;;;;;;;8.50;87.80;;;;;;5090311;23;19935;-84
2023/12/16 12:47:33;;;;;;;;;;;8.50;87.80;;;;;;5087729;23;19947;-85
2023/12/16 12:49:34;;;;;;;;;;;8.50;87.80;;;;;;5115964;23;19912;-86
2023/12/16 12:51:46;;;;;;;;;;;8.50;87.80;;;;;;5112614;23;19964;-83
2023/12/16 12:53:56;;;;;;;;;;;8.50;87.80;;;;;;5116001;23;19931;-86
2023/12/16 12:55:57;;;;;;;;;;;8.50;87.90;;;;;;5114699;23;19908;-86
2023/12/16 12:57:58;;;;;;;;;;;8.50;87.90;;;;;;5089870;23;20004;-84
2023/12/16 13:00:03;;;;;;;;;;;8.50;88.00;;;;;;5089810;23;19921;-83
2023/12/16 13:02:11;;;;;;;;;;;8.40;88.00;;;;;;5091802;23;19923;-83
2023/12/16 13:04:12;;;;;;;;;;;8.40;87.90;;;;;;5088118;23;19909;-82
2023/12/16 13:06:14;;;;;;;;;;;8.50;88.10;;;;;;5092432;23;20206;-84
2023/12/16 13:08:35;;;;;;;;;;;8.50;88.10;;;;;;5092699;23;19912;-84
2023/12/16 13:10:37;;;;;;;;;;;8.50;88.10;;;;;;5116118;23;19930;-83
2023/12/16 13:12:57;;;;;;;;;;;8.50;88.10;;;;;;5091067;23;19909;-83
2023/12/16 13:15:19;;;;;;;;;;;8.50;88.10;;;;;;5116163;23;19932;-83
2023/12/16 13:17:40;;;;;;;;;;;8.50;88.10;;;;;;5116894;23;19920;-81
2023/12/16 13:20:00;;;;;;;;;;;8.40;88.10;;;;;;5094075;23;19916;-84
2023/12/16 13:22:21;;;;;;;;;;;8.50;88.10;;;;;;5094335;23;20027;-83
2023/12/16 13:24:41;;;;;;;;;;;8.50;88.10;;;;;;5095968;23;19908;-83
2023/12/16 13:27:02;;;;;;;;;;;8.50;88.10;;;;;;5095255;23;19904;-84
2023/12/16 13:29:23;;;;;;;;;;;8.50;88.10;;;;;;5118520;23;19943;-83
2023/12/16 13:31:43;;;;;;;;;;;8.50;88.10;;;;;;5094414;23;19935;-84
2023/12/16 13:33:44;;;;;;;;;;;8.50;88.10;;;;;;5089866;23;19959;-82
2023/12/16 13:35:46;;;;;;;;;;;8.50;88.20;;;;;;5113813;23;19908;-83
2023/12/16 13:37:46;;;;;;;;;;;8.50;88.10;;;;;;5091676;23;19984;-83
2023/12/16 13:39:47;;;;;;;;;;;8.50;88.20;;;;;;5089886;23;19959;-83